sensor_id;sensor_type;location;lat;lon;timestamp;P1;durP1;ratioP1;P2;durP2;ratioP2
73893;SDS011;62699;50.534;12.784;2024-01-25T00:04:28;13.00;;;3.83;;
73893;SDS011;62699;50.534;12.784;2024-01-25T00:09:28;14.20;;;3.28;;
73893;SDS011;62699;50.534;12.784;2024-01-25T00:14:28;13.43;;;3.35;;
73893;SDS011;62699;50.534;12.784;2024-01-25T00:19:28;15.05;;;3.72;;
73893;SDS011;62699;50.534;12.784;2024-01-25T00:24:28;15.30;;;4.30;;
73893;SDS011;62699;50.534;12.784;2024-01-25T00:29:30;14.05;;;3.45;;
73893;SDS011;62699;50.534;12.784;2024-01-25T00:34:30;16.00;;;3.83;;
73893;SDS011;62699;50.534;12.784;2024-01-25T00:39:31;11.95;;;3.42;;
73893;SDS011;62699;50.534;12.784;2024-01-25T00:44:32;16.92;;;3.55;;
73893;SDS011;62699;50.534;12.784;2024-01-25T00:49:32;10.20;;;2.50;;
73893;SDS011;62699;50.534;12.784;2024-01-25T00:54:33;16.15;;;4.75;;
73893;SDS011;62699;50.534;12.784;2024-01-25T00:59:33;12.43;;;4.15;;
73893;SDS011;62699;50.534;12.784;2024-01-25T01:04:34;13.60;;;3.00;;
73893;SDS011;62699;50.534;12.784;2024-01-25T01:09:34;10.32;;;3.20;;
73893;SDS011;62699;50.534;12.784;2024-01-25T01:14:35;16.27;;;4.13;;
73893;SDS011;62699;50.534;12.784;2024-01-25T01:19:35;15.02;;;3.72;;
73893;SDS011;62699;50.534;12.784;2024-01-25T01:24:35;13.77;;;3.55;;
73893;SDS011;62699;50.534;12.784;2024-01-25T01:29:35;13.07;;;4.10;;
73893;SDS011;62699;50.534;12.784;2024-01-25T01:34:35;12.88;;;3.97;;
73893;SDS011;62699;50.534;12.784;2024-01-25T01:39:36;14.90;;;4.25;;
73893;SDS011;62699;50.534;12.784;2024-01-25T01:44:36;12.93;;;3.83;;
73893;SDS011;62699;50.534;12.784;2024-01-25T01:49:36;14.60;;;3.90;;
73893;SDS011;62699;50.534;12.784;2024-01-25T01:54:37;10.80;;;3.20;;
73893;SDS011;62699;50.534;12.784;2024-01-25T01:59:38;10.18;;;3.75;;
73893;SDS011;62699;50.534;12.784;2024-01-25T02:04:38;14.55;;;3.70;;
73893;SDS011;62699;50.534;12.784;2024-01-25T02:09:38;14.73;;;3.92;;
73893;SDS011;62699;50.534;12.784;2024-01-25T02:14:38;12.63;;;3.20;;
73893;SDS011;62699;50.534;12.784;2024-01-25T02:19:38;14.30;;;4.53;;
73893;SDS011;62699;50.534;12.784;2024-01-25T02:24:39;20.38;;;4.30;;
73893;SDS011;62699;50.534;12.784;2024-01-25T02:29:39;13.90;;;3.90;;
73893;SDS011;62699;50.534;12.784;2024-01-25T02:34:39;12.27;;;3.60;;
73893;SDS011;62699;50.534;12.784;2024-01-25T02:39:39;13.77;;;3.88;;
73893;SDS011;62699;50.534;12.784;2024-01-25T02:44:40;11.95;;;3.55;;
73893;SDS011;62699;50.534;12.784;2024-01-25T02:49:40;11.68;;;3.75;;
73893;SDS011;62699;50.534;12.784;2024-01-25T02:54:40;12.45;;;3.67;;
73893;SDS011;62699;50.534;12.784;2024-01-25T02:59:40;12.02;;;4.07;;
73893;SDS011;62699;50.534;12.784;2024-01-25T03:04:41;16.23;;;4.32;;
73893;SDS011;62699;50.534;12.784;2024-01-25T03:09:41;14.15;;;3.20;;
73893;SDS011;62699;50.534;12.784;2024-01-25T03:14:41;17.55;;;3.92;;
73893;SDS011;62699;50.534;12.784;2024-01-25T03:19:41;14.70;;;2.70;;
73893;SDS011;62699;50.534;12.784;2024-01-25T03:24:41;11.88;;;3.53;;
73893;SDS011;62699;50.534;12.784;2024-01-25T03:29:42;17.20;;;4.38;;
73893;SDS011;62699;50.534;12.784;2024-01-25T03:34:45;12.30;;;3.95;;
73893;SDS011;62699;50.534;12.784;2024-01-25T03:39:46;16.90;;;3.95;;
73893;SDS011;62699;50.534;12.784;2024-01-25T03:44:46;14.43;;;3.42;;
73893;SDS011;62699;50.534;12.784;2024-01-25T03:49:47;19.60;;;3.95;;
73893;SDS011;62699;50.534;12.784;2024-01-25T03:54:47;16.30;;;3.83;;
73893;SDS011;62699;50.534;12.784;2024-01-25T03:59:47;15.00;;;3.85;;
73893;SDS011;62699;50.534;12.784;2024-01-25T04:04:48;15.95;;;3.83;;
73893;SDS011;62699;50.534;12.784;2024-01-25T04:09:48;12.82;;;3.38;;
73893;SDS011;62699;50.534;12.784;2024-01-25T04:14:50;17.45;;;4.47;;
73893;SDS011;62699;50.534;12.784;2024-01-25T04:19:50;12.90;;;4.10;;
73893;SDS011;62699;50.534;12.784;2024-01-25T04:24:51;13.38;;;3.42;;
73893;SDS011;62699;50.534;12.784;2024-01-25T04:29:51;15.75;;;4.18;;
73893;SDS011;62699;50.534;12.784;2024-01-25T04:34:51;11.27;;;3.55;;
73893;SDS011;62699;50.534;12.784;2024-01-25T04:39:51;15.98;;;4.22;;
73893;SDS011;62699;50.534;12.784;2024-01-25T04:44:52;14.18;;;3.90;;
73893;SDS011;62699;50.534;12.784;2024-01-25T04:49:52;14.13;;;3.53;;
73893;SDS011;62699;50.534;12.784;2024-01-25T04:54:52;12.77;;;4.20;;
73893;SDS011;62699;50.534;12.784;2024-01-25T04:59:53;16.23;;;4.07;;
73893;SDS011;62699;50.534;12.784;2024-01-25T05:04:53;12.75;;;3.42;;
73893;SDS011;62699;50.534;12.784;2024-01-25T05:09:53;14.50;;;3.67;;
73893;SDS011;62699;50.534;12.784;2024-01-25T05:14:53;21.02;;;5.05;;
73893;SDS011;62699;50.534;12.784;2024-01-25T05:19:54;11.38;;;3.85;;
73893;SDS011;62699;50.534;12.784;2024-01-25T05:24:54;19.58;;;8.23;;
73893;SDS011;62699;50.534;12.784;2024-01-25T05:29:54;21.67;;;5.97;;
73893;SDS011;62699;50.534;12.784;2024-01-25T05:34:54;12.10;;;3.20;;
73893;SDS011;62699;50.534;12.784;2024-01-25T05:39:55;15.93;;;4.43;;
73893;SDS011;62699;50.534;12.784;2024-01-25T05:44:55;11.98;;;3.85;;
73893;SDS011;62699;50.534;12.784;2024-01-25T05:49:55;15.40;;;3.80;;
73893;SDS011;62699;50.534;12.784;2024-01-25T05:54:56;9.93;;;3.15;;
73893;SDS011;62699;50.534;12.784;2024-01-25T05:59:56;13.07;;;4.00;;
73893;SDS011;62699;50.534;12.784;2024-01-25T06:04:57;11.98;;;3.55;;
73893;SDS011;62699;50.534;12.784;2024-01-25T06:09:59;12.10;;;3.05;;
73893;SDS011;62699;50.534;12.784;2024-01-25T06:14:59;10.88;;;2.92;;
73893;SDS011;62699;50.534;12.784;2024-01-25T06:19:59;10.60;;;3.50;;
73893;SDS011;62699;50.534;12.784;2024-01-25T06:25:00;11.90;;;3.78;;
73893;SDS011;62699;50.534;12.784;2024-01-25T06:30:00;12.50;;;3.75;;
73893;SDS011;62699;50.534;12.784;2024-01-25T06:35:00;13.20;;;3.08;;
73893;SDS011;62699;50.534;12.784;2024-01-25T06:40:00;10.57;;;2.92;;
73893;SDS011;62699;50.534;12.784;2024-01-25T06:45:01;10.88;;;3.17;;
73893;SDS011;62699;50.534;12.784;2024-01-25T06:50:01;10.05;;;3.72;;
73893;SDS011;62699;50.534;12.784;2024-01-25T06:55:02;12.43;;;3.42;;
73893;SDS011;62699;50.534;12.784;2024-01-25T07:00:03;11.23;;;3.25;;
73893;SDS011;62699;50.534;12.784;2024-01-25T07:05:03;8.68;;;2.67;;
73893;SDS011;62699;50.534;12.784;2024-01-25T07:10:05;9.07;;;3.25;;
73893;SDS011;62699;50.534;12.784;2024-01-25T07:15:06;12.55;;;3.72;;
73893;SDS011;62699;50.534;12.784;2024-01-25T07:20:07;10.45;;;3.25;;
73893;SDS011;62699;50.534;12.784;2024-01-25T07:25:07;11.63;;;3.45;;
73893;SDS011;62699;50.534;12.784;2024-01-25T07:30:08;9.95;;;3.53;;
73893;SDS011;62699;50.534;12.784;2024-01-25T07:35:09;11.52;;;3.03;;
73893;SDS011;62699;50.534;12.784;2024-01-25T07:40:09;16.88;;;6.00;;
73893;SDS011;62699;50.534;12.784;2024-01-25T07:45:11;11.07;;;3.10;;
73893;SDS011;62699;50.534;12.784;2024-01-25T07:50:13;12.07;;;3.20;;
73893;SDS011;62699;50.534;12.784;2024-01-25T07:55:13;15.30;;;3.55;;
73893;SDS011;62699;50.534;12.784;2024-01-25T08:00:14;11.88;;;3.83;;
73893;SDS011;62699;50.534;12.784;2024-01-25T08:05:14;14.07;;;3.92;;
73893;SDS011;62699;50.534;12.784;2024-01-25T08:10:14;6.50;;;2.47;;
73893;SDS011;62699;50.534;12.784;2024-01-25T08:15:16;15.00;;;3.70;;
73893;SDS011;62699;50.534;12.784;2024-01-25T08:20:16;8.48;;;2.50;;
73893;SDS011;62699;50.534;12.784;2024-01-25T08:25:16;10.30;;;2.90;;
73893;SDS011;62699;50.534;12.784;2024-01-25T08:30:17;7.95;;;2.65;;
73893;SDS011;62699;50.534;12.784;2024-01-25T08:35:17;11.65;;;4.15;;
73893;SDS011;62699;50.534;12.784;2024-01-25T08:40:17;8.32;;;2.67;;
73893;SDS011;62699;50.534;12.784;2024-01-25T08:45:18;10.82;;;3.10;;
73893;SDS011;62699;50.534;12.784;2024-01-25T08:50:18;12.10;;;3.33;;
73893;SDS011;62699;50.534;12.784;2024-01-25T08:55:18;11.88;;;3.40;;
73893;SDS011;62699;50.534;12.784;2024-01-25T09:00:18;8.82;;;2.75;;
73893;SDS011;62699;50.534;12.784;2024-01-25T09:05:19;8.45;;;2.97;;
73893;SDS011;62699;50.534;12.784;2024-01-25T09:10:19;18.33;;;4.88;;
73893;SDS011;62699;50.534;12.784;2024-01-25T09:15:20;37.22;;;11.27;;
73893;SDS011;62699;50.534;12.784;2024-01-25T09:20:20;9.18;;;2.60;;
73893;SDS011;62699;50.534;12.784;2024-01-25T09:25:20;9.20;;;2.70;;
73893;SDS011;62699;50.534;12.784;2024-01-25T09:30:21;7.43;;;2.40;;
73893;SDS011;62699;50.534;12.784;2024-01-25T09:35:21;8.60;;;2.60;;
73893;SDS011;62699;50.534;12.784;2024-01-25T09:40:21;10.48;;;2.58;;
73893;SDS011;62699;50.534;12.784;2024-01-25T09:45:21;12.00;;;2.60;;
73893;SDS011;62699;50.534;12.784;2024-01-25T09:50:24;9.73;;;2.65;;
73893;SDS011;62699;50.534;12.784;2024-01-25T09:55:24;10.50;;;2.42;;
73893;SDS011;62699;50.534;12.784;2024-01-25T10:00:26;8.32;;;2.97;;
73893;SDS011;62699;50.534;12.784;2024-01-25T10:05:26;8.32;;;2.92;;
73893;SDS011;62699;50.534;12.784;2024-01-25T10:10:26;8.40;;;2.53;;
73893;SDS011;62699;50.534;12.784;2024-01-25T10:15:27;9.05;;;2.63;;
73893;SDS011;62699;50.534;12.784;2024-01-25T10:20:27;5.75;;;2.30;;
73893;SDS011;62699;50.534;12.784;2024-01-25T10:25:33;12.77;;;3.40;;
73893;SDS011;62699;50.534;12.784;2024-01-25T10:30:36;12.10;;;2.75;;
73893;SDS011;62699;50.534;12.784;2024-01-25T10:35:36;12.20;;;3.13;;
73893;SDS011;62699;50.534;12.784;2024-01-25T10:40:37;11.73;;;2.50;;
73893;SDS011;62699;50.534;12.784;2024-01-25T10:45:39;5.97;;;2.50;;
73893;SDS011;62699;50.534;12.784;2024-01-25T10:50:39;8.18;;;2.35;;
73893;SDS011;62699;50.534;12.784;2024-01-25T10:55:40;8.77;;;2.53;;
73893;SDS011;62699;50.534;12.784;2024-01-25T11:00:40;13.50;;;3.35;;
73893;SDS011;62699;50.534;12.784;2024-01-25T11:05:40;13.32;;;3.42;;
73893;SDS011;62699;50.534;12.784;2024-01-25T11:10:40;7.88;;;2.70;;
73893;SDS011;62699;50.534;12.784;2024-01-25T11:15:41;12.15;;;4.50;;
73893;SDS011;62699;50.534;12.784;2024-01-25T11:20:41;13.45;;;3.33;;
73893;SDS011;62699;50.534;12.784;2024-01-25T11:25:44;30.58;;;11.88;;
73893;SDS011;62699;50.534;12.784;2024-01-25T11:30:45;12.55;;;3.15;;
73893;SDS011;62699;50.534;12.784;2024-01-25T11:35:56;10.05;;;4.05;;
73893;SDS011;62699;50.534;12.784;2024-01-25T11:40:57;20.77;;;6.35;;
73893;SDS011;62699;50.534;12.784;2024-01-25T11:45:58;12.65;;;2.88;;
73893;SDS011;62699;50.534;12.784;2024-01-25T11:50:59;6.82;;;2.30;;
73893;SDS011;62699;50.534;12.784;2024-01-25T11:56:00;7.57;;;2.17;;
73893;SDS011;62699;50.534;12.784;2024-01-25T12:01:01;11.43;;;3.58;;
73893;SDS011;62699;50.534;12.784;2024-01-25T12:06:05;7.38;;;2.60;;
73893;SDS011;62699;50.534;12.784;2024-01-25T12:11:09;5.95;;;2.20;;
73893;SDS011;62699;50.534;12.784;2024-01-25T12:16:10;14.45;;;4.00;;
73893;SDS011;62699;50.534;12.784;2024-01-25T12:21:11;8.90;;;4.07;;
73893;SDS011;62699;50.534;12.784;2024-01-25T12:26:13;6.35;;;2.35;;
73893;SDS011;62699;50.534;12.784;2024-01-25T12:31:16;9.90;;;3.10;;
73893;SDS011;62699;50.534;12.784;2024-01-25T12:36:17;8.85;;;2.20;;
73893;SDS011;62699;50.534;12.784;2024-01-25T12:41:17;10.40;;;3.20;;
73893;SDS011;62699;50.534;12.784;2024-01-25T12:46:18;14.85;;;2.83;;
73893;SDS011;62699;50.534;12.784;2024-01-25T12:51:18;6.47;;;2.47;;
73893;SDS011;62699;50.534;12.784;2024-01-25T12:56:18;8.00;;;2.50;;
73893;SDS011;62699;50.534;12.784;2024-01-25T13:01:19;9.25;;;2.55;;
73893;SDS011;62699;50.534;12.784;2024-01-25T13:06:20;10.38;;;2.60;;
73893;SDS011;62699;50.534;12.784;2024-01-25T13:11:20;5.82;;;2.65;;
73893;SDS011;62699;50.534;12.784;2024-01-25T13:16:20;5.75;;;2.33;;
73893;SDS011;62699;50.534;12.784;2024-01-25T13:21:21;7.97;;;2.97;;
73893;SDS011;62699;50.534;12.784;2024-01-25T13:26:21;9.23;;;2.13;;
73893;SDS011;62699;50.534;12.784;2024-01-25T13:31:22;6.20;;;2.05;;
73893;SDS011;62699;50.534;12.784;2024-01-25T13:36:22;9.35;;;2.92;;
73893;SDS011;62699;50.534;12.784;2024-01-25T13:41:22;5.88;;;2.42;;
73893;SDS011;62699;50.534;12.784;2024-01-25T13:46:22;5.68;;;2.40;;
73893;SDS011;62699;50.534;12.784;2024-01-25T13:51:23;9.75;;;2.65;;
73893;SDS011;62699;50.534;12.784;2024-01-25T13:56:23;10.20;;;4.20;;
73893;SDS011;62699;50.534;12.784;2024-01-25T14:01:23;12.05;;;3.13;;
73893;SDS011;62699;50.534;12.784;2024-01-25T14:06:23;6.82;;;2.30;;
73893;SDS011;62699;50.534;12.784;2024-01-25T14:11:24;6.07;;;2.30;;
73893;SDS011;62699;50.534;12.784;2024-01-25T14:16:26;9.32;;;2.70;;
73893;SDS011;62699;50.534;12.784;2024-01-25T14:21:26;7.70;;;2.55;;
73893;SDS011;62699;50.534;12.784;2024-01-25T14:26:27;4.72;;;2.55;;
73893;SDS011;62699;50.534;12.784;2024-01-25T14:31:27;12.88;;;2.55;;
73893;SDS011;62699;50.534;12.784;2024-01-25T14:36:27;8.73;;;2.58;;
73893;SDS011;62699;50.534;12.784;2024-01-25T14:41:27;11.15;;;3.00;;
73893;SDS011;62699;50.534;12.784;2024-01-25T14:46:28;11.40;;;2.75;;
73893;SDS011;62699;50.534;12.784;2024-01-25T14:51:28;7.35;;;3.05;;
73893;SDS011;62699;50.534;12.784;2024-01-25T14:56:28;8.98;;;2.83;;
73893;SDS011;62699;50.534;12.784;2024-01-25T15:01:29;6.93;;;2.45;;
73893;SDS011;62699;50.534;12.784;2024-01-25T15:06:30;11.30;;;2.78;;
73893;SDS011;62699;50.534;12.784;2024-01-25T15:11:30;8.60;;;2.40;;
73893;SDS011;62699;50.534;12.784;2024-01-25T15:16:31;8.18;;;3.10;;
73893;SDS011;62699;50.534;12.784;2024-01-25T15:21:31;10.60;;;3.22;;
73893;SDS011;62699;50.534;12.784;2024-01-25T15:26:32;9.23;;;2.97;;
73893;SDS011;62699;50.534;12.784;2024-01-25T15:31:32;9.60;;;2.97;;
73893;SDS011;62699;50.534;12.784;2024-01-25T15:36:32;12.82;;;3.60;;
73893;SDS011;62699;50.534;12.784;2024-01-25T15:41:35;8.23;;;3.88;;
73893;SDS011;62699;50.534;12.784;2024-01-25T15:46:35;10.48;;;3.60;;
73893;SDS011;62699;50.534;12.784;2024-01-25T15:51:35;11.05;;;2.95;;
73893;SDS011;62699;50.534;12.784;2024-01-25T15:56:35;13.75;;;4.97;;
73893;SDS011;62699;50.534;12.784;2024-01-25T16:01:36;46.83;;;18.75;;
73893;SDS011;62699;50.534;12.784;2024-01-25T16:06:36;13.93;;;5.43;;
73893;SDS011;62699;50.534;12.784;2024-01-25T16:11:37;8.05;;;3.85;;
73893;SDS011;62699;50.534;12.784;2024-01-25T16:16:37;13.45;;;4.28;;
73893;SDS011;62699;50.534;12.784;2024-01-25T16:21:37;9.63;;;4.20;;
73893;SDS011;62699;50.534;12.784;2024-01-25T16:26:37;14.77;;;5.65;;
73893;SDS011;62699;50.534;12.784;2024-01-25T16:31:38;19.98;;;6.45;;
73893;SDS011;62699;50.534;12.784;2024-01-25T16:36:38;15.73;;;6.25;;
73893;SDS011;62699;50.534;12.784;2024-01-25T16:41:39;16.20;;;6.88;;
73893;SDS011;62699;50.534;12.784;2024-01-25T16:46:39;39.63;;;18.83;;
73893;SDS011;62699;50.534;12.784;2024-01-25T16:51:39;15.93;;;7.90;;
73893;SDS011;62699;50.534;12.784;2024-01-25T16:56:40;64.97;;;33.00;;
73893;SDS011;62699;50.534;12.784;2024-01-25T17:01:40;66.30;;;34.45;;
73893;SDS011;62699;50.534;12.784;2024-01-25T17:06:40;31.65;;;16.55;;
73893;SDS011;62699;50.534;12.784;2024-01-25T17:11:42;21.15;;;10.77;;
73893;SDS011;62699;50.534;12.784;2024-01-25T17:16:45;16.77;;;6.55;;
73893;SDS011;62699;50.534;12.784;2024-01-25T17:21:46;17.20;;;8.80;;
73893;SDS011;62699;50.534;12.784;2024-01-25T17:26:46;9.68;;;4.60;;
73893;SDS011;62699;50.534;12.784;2024-01-25T17:31:46;10.85;;;4.55;;
73893;SDS011;62699;50.534;12.784;2024-01-25T17:36:47;7.20;;;4.47;;
73893;SDS011;62699;50.534;12.784;2024-01-25T17:41:48;12.32;;;5.80;;
73893;SDS011;62699;50.534;12.784;2024-01-25T17:46:48;19.60;;;8.38;;
73893;SDS011;62699;50.534;12.784;2024-01-25T17:51:48;15.55;;;6.60;;
73893;SDS011;62699;50.534;12.784;2024-01-25T17:56:49;10.20;;;6.40;;
73893;SDS011;62699;50.534;12.784;2024-01-25T18:01:49;13.73;;;7.35;;
73893;SDS011;62699;50.534;12.784;2024-01-25T18:06:49;13.57;;;6.65;;
73893;SDS011;62699;50.534;12.784;2024-01-25T18:11:50;13.68;;;6.22;;
73893;SDS011;62699;50.534;12.784;2024-01-25T18:16:51;15.68;;;7.43;;
73893;SDS011;62699;50.534;12.784;2024-01-25T18:21:52;15.20;;;6.25;;
73893;SDS011;62699;50.534;12.784;2024-01-25T18:26:52;14.45;;;6.15;;
73893;SDS011;62699;50.534;12.784;2024-01-25T18:31:52;28.15;;;11.82;;
73893;SDS011;62699;50.534;12.784;2024-01-25T18:36:52;17.92;;;7.20;;
73893;SDS011;62699;50.534;12.784;2024-01-25T18:41:53;21.04;;;10.44;;
73893;SDS011;62699;50.534;12.784;2024-01-25T18:46:54;18.83;;;6.75;;
73893;SDS011;62699;50.534;12.784;2024-01-25T18:51:54;15.07;;;7.45;;
73893;SDS011;62699;50.534;12.784;2024-01-25T18:56:55;13.02;;;7.00;;
73893;SDS011;62699;50.534;12.784;2024-01-25T19:01:55;20.52;;;9.00;;
73893;SDS011;62699;50.534;12.784;2024-01-25T19:06:57;19.00;;;8.68;;
73893;SDS011;62699;50.534;12.784;2024-01-25T19:11:58;14.23;;;6.50;;
73893;SDS011;62699;50.534;12.784;2024-01-25T19:16:58;15.32;;;8.63;;
73893;SDS011;62699;50.534;12.784;2024-01-25T19:21:59;18.55;;;8.55;;
73893;SDS011;62699;50.534;12.784;2024-01-25T19:26:59;16.85;;;8.30;;
73893;SDS011;62699;50.534;12.784;2024-01-25T19:32:00;25.05;;;11.75;;
73893;SDS011;62699;50.534;12.784;2024-01-25T19:37:00;15.18;;;6.90;;
73893;SDS011;62699;50.534;12.784;2024-01-25T19:42:00;18.65;;;8.43;;
73893;SDS011;62699;50.534;12.784;2024-01-25T19:47:00;19.17;;;9.73;;
73893;SDS011;62699;50.534;12.784;2024-01-25T19:52:01;16.83;;;8.35;;
73893;SDS011;62699;50.534;12.784;2024-01-25T19:57:02;22.58;;;10.32;;
73893;SDS011;62699;50.534;12.784;2024-01-25T20:02:03;18.90;;;9.23;;
73893;SDS011;62699;50.534;12.784;2024-01-25T20:07:05;17.20;;;8.10;;
73893;SDS011;62699;50.534;12.784;2024-01-25T20:12:05;15.43;;;8.27;;
73893;SDS011;62699;50.534;12.784;2024-01-25T20:17:06;14.88;;;9.07;;
73893;SDS011;62699;50.534;12.784;2024-01-25T20:22:06;23.65;;;10.30;;
73893;SDS011;62699;50.534;12.784;2024-01-25T20:27:07;15.57;;;8.63;;
73893;SDS011;62699;50.534;12.784;2024-01-25T20:32:07;17.60;;;7.07;;
73893;SDS011;62699;50.534;12.784;2024-01-25T20:37:08;14.40;;;6.93;;
73893;SDS011;62699;50.534;12.784;2024-01-25T20:42:08;20.48;;;7.75;;
73893;SDS011;62699;50.534;12.784;2024-01-25T20:47:08;16.40;;;7.05;;
73893;SDS011;62699;50.534;12.784;2024-01-25T20:52:09;12.95;;;6.70;;
73893;SDS011;62699;50.534;12.784;2024-01-25T20:57:09;15.18;;;6.93;;
73893;SDS011;62699;50.534;12.784;2024-01-25T21:02:10;13.95;;;5.60;;
73893;SDS011;62699;50.534;12.784;2024-01-25T21:07:10;16.80;;;5.93;;
73893;SDS011;62699;50.534;12.784;2024-01-25T21:12:11;11.55;;;6.57;;
73893;SDS011;62699;50.534;12.784;2024-01-25T21:17:12;9.55;;;5.57;;
73893;SDS011;62699;50.534;12.784;2024-01-25T21:22:12;15.65;;;9.23;;
73893;SDS011;62699;50.534;12.784;2024-01-25T21:27:13;15.52;;;7.10;;
73893;SDS011;62699;50.534;12.784;2024-01-25T21:32:13;12.75;;;7.95;;
73893;SDS011;62699;50.534;12.784;2024-01-25T21:37:13;15.82;;;7.63;;
73893;SDS011;62699;50.534;12.784;2024-01-25T21:42:14;15.43;;;7.60;;
73893;SDS011;62699;50.534;12.784;2024-01-25T21:47:14;13.35;;;6.57;;
73893;SDS011;62699;50.534;12.784;2024-01-25T21:52:14;10.48;;;5.55;;
73893;SDS011;62699;50.534;12.784;2024-01-25T21:57:15;12.13;;;5.10;;
73893;SDS011;62699;50.534;12.784;2024-01-25T22:02:15;13.38;;;5.03;;
73893;SDS011;62699;50.534;12.784;2024-01-25T22:07:15;15.80;;;6.00;;
73893;SDS011;62699;50.534;12.784;2024-01-25T22:12:16;11.93;;;6.03;;
73893;SDS011;62699;50.534;12.784;2024-01-25T22:17:16;16.33;;;5.90;;
73893;SDS011;62699;50.534;12.784;2024-01-25T22:22:16;18.10;;;6.32;;
73893;SDS011;62699;50.534;12.784;2024-01-25T22:27:16;12.93;;;5.45;;
73893;SDS011;62699;50.534;12.784;2024-01-25T22:32:17;12.95;;;5.70;;
73893;SDS011;62699;50.534;12.784;2024-01-25T22:37:17;15.80;;;5.47;;
73893;SDS011;62699;50.534;12.784;2024-01-25T22:42:17;13.32;;;4.93;;
73893;SDS011;62699;50.534;12.784;2024-01-25T22:47:18;8.82;;;4.88;;
73893;SDS011;62699;50.534;12.784;2024-01-25T22:52:18;10.40;;;4.57;;
73893;SDS011;62699;50.534;12.784;2024-01-25T22:57:18;10.93;;;5.28;;
73893;SDS011;62699;50.534;12.784;2024-01-25T23:02:19;14.43;;;5.07;;
73893;SDS011;62699;50.534;12.784;2024-01-25T23:07:19;11.68;;;5.15;;
73893;SDS011;62699;50.534;12.784;2024-01-25T23:12:19;12.60;;;5.63;;
73893;SDS011;62699;50.534;12.784;2024-01-25T23:17:19;18.92;;;6.10;;
73893;SDS011;62699;50.534;12.784;2024-01-25T23:22:20;13.13;;;5.40;;
73893;SDS011;62699;50.534;12.784;2024-01-25T23:27:20;11.52;;;5.13;;
73893;SDS011;62699;50.534;12.784;2024-01-25T23:32:20;12.90;;;5.13;;
73893;SDS011;62699;50.534;12.784;2024-01-25T23:37:20;13.48;;;4.95;;
73893;SDS011;62699;50.534;12.784;2024-01-25T23:42:22;17.23;;;5.95;;
73893;SDS011;62699;50.534;12.784;2024-01-25T23:47:22;15.73;;;4.68;;
73893;SDS011;62699;50.534;12.784;2024-01-25T23:52:22;14.20;;;5.22;;
73893;SDS011;62699;50.534;12.784;2024-01-25T23:57:23;15.75;;;5.32;;
